Time;durP1;ratioP1;P1;durP2;ratioP2;P2;SDS_P1;SDS_P2;PMS_P1;PMS_P2;Temp;Humidity;BMP_temperature;BMP_pressure;BME280_temperature;BME280_humidity;BME280_pressure;Samples;Min_cycle;Max_cycle;Signal;HPM_P1;HPM_P2
2023/09/09 00:00:20;;;;;;;24.48;17.23;;;;;;;22.96;100.00;101457.75;5057122;28;20041;-65
2023/09/09 00:03:08;;;;;;;25.15;16.60;;;;;;;22.95;100.00;101462.50;5052219;28;20053;-64
2023/09/09 00:05:56;;;;;;;22.83;16.20;;;;;;;22.96;100.00;101454.97;5029457;28;20079;-64
2023/09/09 00:08:44;;;;;;;19.27;16.00;;;;;;;22.98;100.00;101455.47;5031782;28;20100;-64
2023/09/09 00:11:32;;;;;;;17.48;13.95;;;;;;;23.00;100.00;101455.16;5032535;28;20073;-64
2023/09/09 00:14:20;;;;;;;20.75;15.80;;;;;;;23.04;100.00;101456.06;5043559;28;20045;-64
2023/09/09 00:17:08;;;;;;;21.98;15.52;;;;;;;23.07;100.00;101455.44;5046626;28;20041;-65
2023/09/09 00:19:56;;;;;;;21.20;16.35;;;;;;;23.09;100.00;101456.72;5057153;28;20133;-64
2023/09/09 00:22:44;;;;;;;17.67;15.25;;;;;;;23.13;100.00;101454.06;5056867;28;20423;-64
2023/09/09 00:25:41;;;;;;;20.45;15.00;;;;;;;23.14;100.00;101447.38;5070615;28;20049;-65
2023/09/09 00:28:30;;;;;;;19.27;15.88;;;;;;;23.16;100.00;101456.16;5040272;28;20116;-67
2023/09/09 00:31:18;;;;;;;18.58;14.38;;;;;;;23.16;100.00;101447.81;5026046;28;20055;-65
2023/09/09 00:34:06;;;;;;;19.42;15.57;;;;;;;23.15;100.00;101449.78;5038307;28;20045;-64
2023/09/09 00:36:54;;;;;;;19.15;15.27;;;;;;;23.16;100.00;101453.38;5059036;28;20036;-65
2023/09/09 00:39:43;;;;;;;22.85;16.67;;;;;;;23.14;100.00;101444.59;5057240;28;20130;-64
2023/09/09 00:42:31;;;;;;;24.80;15.10;;;;;;;23.14;100.00;101452.94;5058134;28;20061;-66
2023/09/09 00:45:19;;;;;;;17.95;14.85;;;;;;;23.13;100.00;101442.94;5043949;28;20049;-63
2023/09/09 00:48:07;;;;;;;21.73;15.07;;;;;;;23.12;100.00;101444.09;5053508;28;20416;-64
2023/09/09 00:50:56;;;;;;;24.20;15.50;;;;;;;23.10;100.00;101444.44;5042876;28;20052;-65
2023/09/09 00:53:45;;;;;;;22.20;17.23;;;;;;;23.09;100.00;101447.53;5057221;28;20056;-64
2023/09/09 00:56:34;;;;;;;24.73;18.52;;;;;;;23.05;100.00;101438.28;5071606;28;20084;-64
2023/09/09 00:59:22;;;;;;;24.48;18.98;;;;;;;22.98;100.00;101449.91;5036115;28;20547;-65
2023/09/09 01:02:10;;;;;;;27.15;18.40;;;;;;;22.93;100.00;101447.31;5036592;28;20045;-65
2023/09/09 01:04:59;;;;;;;21.88;17.67;;;;;;;22.89;100.00;101436.03;5035218;28;20033;-65
2023/09/09 01:07:49;;;;;;;22.67;18.67;;;;;;;22.85;100.00;101434.25;5040517;28;20052;-65
2023/09/09 01:10:37;;;;;;;24.02;17.27;;;;;;;22.83;100.00;101436.59;5060122;28;20139;-65
2023/09/09 01:13:29;;;;;;;24.20;19.63;;;;;;;22.81;100.00;101439.69;5061005;28;20425;-64
2023/09/09 01:16:19;;;;;;;25.20;19.23;;;;;;;22.79;100.00;101446.75;5036890;28;20493;-65
2023/09/09 01:19:09;;;;;;;30.60;21.27;;;;;;;22.77;100.00;101438.72;5059174;28;20458;-65
2023/09/09 01:22:02;;;;;;;27.70;22.00;;;;;;;22.76;100.00;101437.91;5043758;28;20045;-64
2023/09/09 01:24:51;;;;;;;28.25;24.05;;;;;;;22.74;100.00;101431.06;5023345;28;20057;-63
2023/09/09 01:27:40;;;;;;;33.45;24.17;;;;;;;22.71;100.00;101440.09;5054421;28;20052;-64
2023/09/09 01:30:28;;;;;;;31.10;24.73;;;;;;;22.68;100.00;101436.03;5045563;28;20640;-66
2023/09/09 01:33:16;;;;;;;28.80;24.90;;;;;;;22.66;100.00;101443.06;5052220;28;20044;-64
2023/09/09 01:36:05;;;;;;;30.60;26.45;;;;;;;22.63;100.00;101438.97;5060618;28;20067;-64
2023/09/09 01:38:53;;;;;;;33.33;27.23;;;;;;;22.60;100.00;101436.88;5060539;28;20237;-65
2023/09/09 01:41:41;;;;;;;35.13;26.13;;;;;;;22.59;100.00;101435.25;5041673;28;20056;-64
2023/09/09 01:44:29;;;;;;;34.70;27.67;;;;;;;22.57;100.00;101433.97;5038707;28;20049;-64
2023/09/09 01:47:17;;;;;;;30.67;26.50;;;;;;;22.54;100.00;101436.25;5040855;28;20079;-64
2023/09/09 01:50:06;;;;;;;32.83;27.33;;;;;;;22.54;100.00;101432.66;5039379;28;20412;-65
2023/09/09 01:52:55;;;;;;;33.22;27.15;;;;;;;22.53;100.00;101429.03;5051122;28;20182;-64
2023/09/09 01:55:43;;;;;;;33.65;27.13;;;;;;;22.51;100.00;101427.75;5074787;28;20049;-64
2023/09/09 01:58:31;;;;;;;31.90;26.75;;;;;;;22.48;100.00;101432.03;5040925;28;20049;-65
2023/09/09 02:01:19;;;;;;;30.60;27.20;;;;;;;22.45;100.00;101427.13;5038978;28;20064;-63
2023/09/09 02:04:07;;;;;;;36.33;30.23;;;;;;;22.44;100.00;101438.56;5054361;28;20056;-63
2023/09/09 02:06:55;;;;;;;37.03;30.33;;;;;;;22.42;100.00;101436.16;5039653;28;20172;-66
2023/09/09 02:09:45;;;;;;;34.17;29.85;;;;;;;22.41;100.00;101436.47;5053629;28;20416;-65
2023/09/09 02:12:34;;;;;;;39.22;29.17;;;;;;;22.41;100.00;101436.47;5069980;28;20385;-64
2023/09/09 02:15:22;;;;;;;33.63;28.90;;;;;;;22.40;100.00;101434.84;5073430;28;20389;-65
2023/09/09 02:18:10;;;;;;;37.03;31.13;;;;;;;22.38;100.00;101431.59;5057359;28;20134;-65
2023/09/09 02:20:58;;;;;;;39.33;32.30;;;;;;;22.37;100.00;101424.41;5055172;28;20084;-64
2023/09/09 02:23:46;;;;;;;38.20;31.95;;;;;;;22.33;100.00;101429.81;5024281;28;20044;-65
2023/09/09 02:26:35;;;;;;;41.22;32.58;;;;;;;22.30;100.00;101431.28;5072922;28;20052;-65
2023/09/09 02:29:23;;;;;;;37.95;31.35;;;;;;;22.30;100.00;101430.50;5059894;28;20071;-65
2023/09/09 02:32:11;;;;;;;38.50;32.30;;;;;;;22.29;100.00;101428.84;5030965;28;20052;-65
2023/09/09 02:35:00;;;;;;;42.28;33.58;;;;;;;22.25;100.00;101425.94;5074788;28;20071;-65
2023/09/09 02:37:48;;;;;;;41.38;35.33;;;;;;;22.19;100.00;101427.22;5071764;28;20052;-65
2023/09/09 02:40:36;;;;;;;42.05;35.45;;;;;;;22.16;100.00;101429.84;5059384;28;20070;-66
2023/09/09 02:43:24;;;;;;;39.05;33.38;;;;;;;22.11;100.00;101426.09;5051781;28;20509;-64
2023/09/09 02:46:13;;;;;;;39.38;34.22;;;;;;;22.09;100.00;101425.63;5040182;28;20119;-64
2023/09/09 02:49:01;;;;;;;44.58;36.88;;;;;;;22.09;100.00;101424.81;5039898;28;20045;-64
2023/09/09 02:51:49;;;;;;;44.63;36.15;;;;;;;22.06;100.00;101426.28;5041500;28;20041;-65
2023/09/09 02:54:38;;;;;;;43.97;36.05;;;;;;;22.02;100.00;101430.88;5062271;28;20048;-66
2023/09/09 02:57:26;;;;;;;43.22;35.67;;;;;;;21.99;100.00;101426.00;5062549;28;20053;-65
2023/09/09 03:00:16;;;;;;;43.63;35.80;;;;;;;21.94;100.00;101431.72;5048158;28;20047;-65
2023/09/09 03:03:05;;;;;;;40.88;33.65;;;;;;;21.92;100.00;101442.31;5052500;28;20542;-65
2023/09/09 03:05:53;;;;;;;44.63;35.22;;;;;;;21.91;100.00;101440.69;5061225;28;20052;-65
2023/09/09 03:08:42;;;;;;;42.25;33.95;;;;;;;21.88;100.00;101421.94;5029599;28;20037;-64
2023/09/09 03:11:30;;;;;;;42.47;36.45;;;;;;;21.86;100.00;101421.44;5066204;28;20484;-64
2023/09/09 03:14:19;;;;;;;42.70;34.72;;;;;;;21.85;100.00;101428.16;5059040;28;20500;-64
2023/09/09 03:17:07;;;;;;;47.55;38.15;;;;;;;21.83;100.00;101438.75;5045132;28;20048;-65
2023/09/09 03:19:55;;;;;;;42.92;36.75;;;;;;;21.80;100.00;101428.31;5072061;28;20491;-63
2023/09/09 03:22:43;;;;;;;43.40;36.22;;;;;;;21.76;100.00;101432.88;5053650;28;20615;-65
2023/09/09 03:25:31;;;;;;;44.88;37.20;;;;;;;21.74;100.00;101437.94;5058265;28;20569;-65
2023/09/09 03:28:19;;;;;;;42.15;36.13;;;;;;;21.70;100.00;101444.16;5074104;28;20052;-65
2023/09/09 03:31:08;;;;;;;41.83;35.50;;;;;;;21.69;100.00;101439.78;5051306;28;20094;-64
2023/09/09 03:33:56;;;;;;;42.97;36.10;;;;;;;21.68;100.00;101438.13;5037263;28;20111;-65
2023/09/09 03:36:44;;;;;;;42.08;35.47;;;;;;;21.68;100.00;101437.31;5054220;28;20052;-64
2023/09/09 03:39:32;;;;;;;41.78;35.55;;;;;;;21.68;100.00;101440.91;5041025;28;20413;-65
2023/09/09 03:42:20;;;;;;;41.28;35.33;;;;;;;21.68;100.00;101431.75;5057646;28;20128;-64
2023/09/09 03:45:10;;;;;;;42.80;35.30;;;;;;;21.65;100.00;101433.25;5057626;28;20040;-67
2023/09/09 03:47:58;;;;;;;41.35;35.00;;;;;;;21.64;100.00;101433.56;5058537;28;20071;-64
2023/09/09 03:50:46;;;;;;;45.58;37.35;;;;;;;21.64;100.00;101428.81;5050745;28;20051;-64
2023/09/09 03:53:34;;;;;;;44.20;37.80;;;;;;;21.63;100.00;101432.75;5038852;28;20059;-65
2023/09/09 03:56:24;;;;;;;40.63;34.67;;;;;;;21.62;100.00;101442.22;5038489;28;20064;-64
2023/09/09 03:59:13;;;;;;;44.10;34.90;;;;;;;21.61;100.00;101437.81;5039345;28;20179;-65
2023/09/09 04:02:01;;;;;;;44.42;35.40;;;;;;;21.60;100.00;101441.72;5048907;28;20076;-64
2023/09/09 04:04:49;;;;;;;38.05;30.13;;;;;;;21.61;100.00;101442.53;5023306;28;20041;-65
2023/09/09 04:07:37;;;;;;;34.67;29.30;;;;;;;21.62;100.00;101444.16;5061354;28;20063;-65
2023/09/09 04:10:26;;;;;;;38.22;31.60;;;;;;;21.62;100.00;101444.16;5050521;28;20053;-64
2023/09/09 04:13:14;;;;;;;42.47;35.45;;;;;;;21.61;100.00;101437.81;5011988;28;20045;-63
2023/09/09 04:16:02;;;;;;;34.60;29.20;;;;;;;21.60;100.00;101441.72;5052204;28;20045;-64
2023/09/09 04:18:50;;;;;;;35.75;30.20;;;;;;;21.60;100.00;101440.88;5023403;28;20049;-65
2023/09/09 04:21:40;;;;;;;43.75;34.47;;;;;;;21.59;100.00;101440.09;5044863;28;20065;-64
2023/09/09 04:24:28;;;;;;;36.58;30.13;;;;;;;21.59;100.00;101444.81;5036114;28;20057;-64
2023/09/09 04:27:16;;;;;;;39.47;31.23;;;;;;;21.61;100.00;101442.53;5050561;28;20060;-61
2023/09/09 04:30:05;;;;;;;37.80;29.67;;;;;;;21.60;100.00;101436.19;5050822;28;20052;-64
2023/09/09 04:32:54;;;;;;;39.63;30.73;;;;;;;21.59;100.00;101442.84;5052190;28;20063;-64
2023/09/09 04:35:43;;;;;;;37.97;31.10;;;;;;;21.56;100.00;101437.16;5044636;28;20045;-63
2023/09/09 04:38:33;;;;;;;42.60;35.28;;;;;;;21.53;100.00;101435.88;5030305;28;20080;-65
2023/09/09 04:41:21;;;;;;;46.28;38.30;;;;;;;21.50;100.00;101436.50;5043684;28;20045;-65
2023/09/09 04:44:09;;;;;;;47.03;36.15;;;;;;;21.48;100.00;101438.81;5036194;28;20045;-64
2023/09/09 04:46:58;;;;;;;45.53;37.97;;;;;;;21.48;100.00;101445.16;5036846;28;20050;-65
2023/09/09 04:49:46;;;;;;;48.38;39.10;;;;;;;21.46;100.00;101441.09;5037341;28;20056;-64
2023/09/09 04:52:34;;;;;;;47.72;39.08;;;;;;;21.43;100.00;101447.25;5035932;28;20041;-64
2023/09/09 04:55:22;;;;;;;48.08;39.22;;;;;;;21.43;100.00;101447.25;5037037;28;20045;-63
2023/09/09 04:58:11;;;;;;;46.47;37.70;;;;;;;21.41;100.00;101449.56;5035312;28;20073;-64
2023/09/09 05:00:59;;;;;;;44.65;37.97;;;;;;;21.40;100.00;101443.19;5034070;28;20042;-63
2023/09/09 05:03:47;;;;;;;46.28;36.05;;;;;;;21.39;100.00;101449.88;5039218;28;20081;-64
2023/09/09 05:06:35;;;;;;;48.92;40.65;;;;;;;21.36;100.00;101447.75;5035825;28;20053;-63
2023/09/09 05:09:23;;;;;;;55.08;45.85;;;;;;;21.34;100.00;101454.75;5035529;28;20081;-64
2023/09/09 05:12:11;;;;;;;59.85;46.70;;;;;;;21.28;100.00;101457.66;5035091;28;20409;-63
2023/09/09 05:14:59;;;;;;;60.45;49.15;;;;;;;21.25;100.00;101458.31;5034760;28;20161;-65
2023/09/09 05:17:48;;;;;;;55.40;44.42;;;;;;;21.18;100.00;101458.00;5040710;28;20378;-65
2023/09/09 05:20:36;;;;;;;59.55;49.35;;;;;;;21.09;100.00;101459.13;5049758;28;20049;-65
2023/09/09 05:23:24;;;;;;;60.42;49.20;;;;;;;20.97;100.00;101462.53;5040195;28;20056;-63
2023/09/09 05:26:12;;;;;;;61.67;49.65;;;;;;;20.85;100.00;101465.91;5054688;28;20064;-63
2023/09/09 05:29:01;;;;;;;65.25;49.90;;;;;;;20.77;100.00;101459.22;5054569;28;20049;-64
2023/09/09 05:31:50;;;;;;;64.13;49.92;;;;;;;20.81;100.00;101460.22;5052491;28;20049;-66
2023/09/09 05:34:38;;;;;;;61.95;50.05;;;;;;;20.79;100.00;101459.72;5051699;28;20041;-64
2023/09/09 05:37:27;;;;;;;72.63;55.30;;;;;;;20.77;100.00;101462.00;5053713;28;20187;-63
2023/09/09 05:40:15;;;;;;;68.80;54.33;;;;;;;20.72;100.00;101467.69;5037736;28;20057;-63
2023/09/09 05:43:03;;;;;;;69.00;53.00;;;;;;;20.70;100.00;101469.94;5034028;28;20049;-64
2023/09/09 05:45:51;;;;;;;61.60;50.70;;;;;;;20.65;100.00;101475.63;5034057;28;20682;-66
2023/09/09 05:48:39;;;;;;;66.68;51.85;;;;;;;20.62;100.00;101479.06;5034881;28;20072;-65
2023/09/09 05:51:27;;;;;;;55.20;45.25;;;;;;;;;;5033269;28;20049;-65
2023/09/09 05:54:15;;;;;;;55.80;46.30;;;;;;;20.59;100.00;101482.47;5034173;28;20111;-65
2023/09/09 05:57:04;;;;;;;56.47;46.85;;;;;;;20.63;100.00;101480.69;5033152;28;20050;-65
2023/09/09 05:59:52;;;;;;;59.28;45.80;;;;;;;20.62;100.00;101484.59;5035103;28;20517;-66
2023/09/09 06:02:41;;;;;;;65.38;52.22;;;;;;;20.56;100.00;101485.84;5034782;28;20045;-63
2023/09/09 06:05:31;;;;;;;59.35;46.05;;;;;;;20.50;100.00;101492.66;5048441;28;20049;-65
2023/09/09 06:08:19;;;;;;;56.08;44.88;;;;;;;20.57;100.00;101487.50;5058763;28;20128;-65
2023/09/09 06:11:07;;;;;;;55.55;43.28;;;;;;;20.65;100.00;101500.56;5053626;28;20041;-64
2023/09/09 06:13:55;;;;;;;50.00;40.58;;;;;;;20.71;100.00;101499.28;5052287;28;20640;-66
2023/09/09 06:16:43;;;;;;;52.85;43.25;;;;;;;20.72;100.00;101497.34;5053391;28;20150;-66
2023/09/09 06:19:31;;;;;;;50.38;42.88;;;;;;;20.72;100.00;101498.16;5026023;28;20056;-65
2023/09/09 06:22:19;;;;;;;48.67;40.10;;;;;;;20.69;100.00;101498.78;5020434;28;20049;-65
2023/09/09 06:25:08;;;;;;;46.75;39.95;;;;;;;20.69;100.00;101507.09;5034188;28;20055;-65
2023/09/09 06:27:56;;;;;;;51.20;42.70;;;;;;;20.69;100.00;101507.09;5052633;28;20497;-66
2023/09/09 06:30:44;;;;;;;50.75;41.30;;;;;;;20.69;100.00;101504.34;5037663;28;20100;-66
2023/09/09 06:33:33;;;;;;;50.95;42.15;;;;;;;20.71;100.00;101515.06;5018217;28;20073;-64
2023/09/09 06:36:21;;;;;;;46.20;39.95;;;;;;;20.69;100.00;101518.19;5034511;28;20095;-64
2023/09/09 06:39:10;;;;;;;46.70;40.05;;;;;;;20.74;100.00;101520.00;5032279;28;20045;-65
2023/09/09 06:41:58;;;;;;;55.45;45.53;;;;;;;20.72;100.00;101519.50;5053121;28;20587;-63
2023/09/09 06:44:52;;;;;;;70.03;54.63;;;;;;;20.55;100.00;101517.44;5053515;28;20049;-64
2023/09/09 06:47:40;;;;;;;68.43;51.80;;;;;;;20.35;100.00;101521.56;5054149;28;20497;-64
2023/09/09 06:50:28;;;;;;;65.70;51.20;;;;;;;20.35;100.00;101527.13;5046423;28;20179;-64
2023/09/09 06:53:16;;;;;;;66.00;50.15;;;;;;;20.42;100.00;101531.06;5034384;28;20769;-65
2023/09/09 06:56:05;;;;;;;67.63;51.38;;;;;;;20.39;100.00;101534.44;5044648;28;20052;-64
2023/09/09 06:58:53;;;;;;;64.47;49.95;;;;;;;20.36;100.00;101531.50;5052043;28;20044;-65
2023/09/09 07:01:41;;;;;;;74.22;50.50;;;;;;;20.39;100.00;101533.63;5023472;28;20049;-64
2023/09/09 07:04:29;;;;;;;62.15;47.78;;;;;;;20.47;100.00;101532.88;5049197;28;20056;-64
2023/09/09 07:07:17;;;;;;;65.43;50.97;;;;;;;20.45;100.00;101535.13;5051049;28;20044;-65
2023/09/09 07:10:08;;;;;;;75.40;54.50;;;;;;;20.36;100.00;101537.03;5049876;28;20130;-65
2023/09/09 07:12:56;;;;;;;82.78;61.67;;;;;;;20.39;100.00;101537.22;5053970;28;20146;-65
2023/09/09 07:15:44;;;;;;;81.72;59.17;;;;;;;20.45;100.00;101545.41;5053956;28;20080;-62
2023/09/09 07:18:32;;;;;;;80.43;59.75;;;;;;;20.48;100.00;101542.81;5036332;28;20604;-62
2023/09/09 07:21:20;;;;;;;79.13;56.50;;;;;;;20.53;100.00;101550.16;5040384;28;20072;-63
2023/09/09 07:24:08;;;;;;;68.45;51.42;;;;;;;20.54;100.00;101554.53;5053119;28;20580;-63
2023/09/09 07:26:57;;;;;;;73.88;53.83;;;;;;;20.55;100.00;101553.44;5052165;28;20402;-63
2023/09/09 07:29:45;;;;;;;75.90;54.17;;;;;;;20.54;100.00;101560.06;5037809;28;20056;-63
2023/09/09 07:32:34;;;;;;;69.40;51.50;;;;;;;20.56;100.00;101555.06;5038281;28;20060;-63
2023/09/09 07:35:23;;;;;;;72.68;55.42;;;;;;;20.58;100.00;101559.16;5053000;28;20123;-64
2023/09/09 07:38:11;;;;;;;59.53;44.40;;;;;;;20.59;100.00;101554.47;5051422;28;20481;-63
2023/09/09 07:41:00;;;;;;;65.97;49.53;;;;;;;20.62;100.00;101556.59;5052705;28;20045;-64
2023/09/09 07:43:48;;;;;;;60.35;44.17;;;;;;;20.60;100.00;101559.66;5034996;28;20063;-64
2023/09/09 07:46:36;;;;;;;66.25;48.00;;;;;;;20.67;100.00;101564.75;5027832;28;20059;-63
2023/09/09 07:49:25;;;;;;;64.80;49.50;;;;;;;20.60;100.00;101567.97;5038370;28;20049;-64
2023/09/09 07:52:13;;;;;;;56.13;44.15;;;;;;;;;;5052182;28;20068;-64
2023/09/09 07:55:01;;;;;;;72.82;58.30;;;;;;;20.53;100.00;101575.06;5037684;28;20045;-64
2023/09/09 07:57:49;;;;;;;70.28;57.88;;;;;;;20.42;100.00;101572.56;5038405;28;20416;-65
2023/09/09 08:00:39;;;;;;;73.40;50.60;;;;;;;20.47;100.00;101576.31;5034047;28;20164;-64
2023/09/09 08:03:28;;;;;;;59.08;44.50;;;;;;;20.58;100.00;101574.97;5048093;28;20048;-64
2023/09/09 08:06:16;;;;;;;60.92;46.50;;;;;;;20.69;100.00;101579.09;5052512;28;20397;-63
2023/09/09 08:09:04;;;;;;;66.43;54.95;;;;;;;20.69;100.00;101570.78;5046210;28;20044;-64
2023/09/09 08:11:52;;;;;;;76.38;63.20;;;;;;;20.64;100.00;101577.28;5052166;28;20135;-63
2023/09/09 08:14:44;;;;;;;71.63;59.00;;;;;;;20.59;100.00;101582.16;5049894;28;20083;-64
2023/09/09 08:17:32;;;;;;;66.35;58.05;;;;;;;20.55;100.00;101583.88;5035902;28;20053;-65
2023/09/09 08:20:20;;;;;;;68.80;55.72;;;;;;;20.54;100.00;101582.22;5024056;28;20061;-64
2023/09/09 08:23:09;;;;;;;67.55;55.97;;;;;;;20.54;100.00;101579.47;5044487;28;20072;-64
2023/09/09 08:25:57;;;;;;;71.15;55.85;;;;;;;20.58;100.00;101580.50;5048613;28;20051;-65
2023/09/09 08:28:45;;;;;;;68.10;59.28;;;;;;;;;;4681354;28;10000631;-65
2023/09/09 08:31:35;;;;;;;67.43;57.42;;;;;;;20.56;100.00;101582.75;5048811;28;20719;-65
2023/09/09 08:34:23;;;;;;;61.13;49.03;;;;;;;20.58;100.00;101583.28;5032349;28;20138;-64
2023/09/09 08:37:11;;;;;;;66.63;56.90;;;;;;;20.69;100.00;101583.84;5040445;28;20068;-64
2023/09/09 08:40:02;;;;;;;66.05;55.72;;;;;;;20.72;100.00;101583.19;5013942;28;20475;-64
2023/09/09 08:43:07;;;;;;;61.78;54.90;;;;;;;20.72;100.00;101589.53;5015242;28;20053;-65
2023/09/09 08:46:28;;;;;;;65.90;56.88;;;;;;;20.73;100.00;101585.63;5028073;28;20420;-64
2023/09/09 08:49:18;;;;;;;45.92;40.20;;;;;;;20.80;100.00;101585.97;5011898;28;20054;-64
2023/09/09 08:52:17;;;;;;;62.33;51.85;;;;;;;20.91;100.00;101580.19;5028233;28;20466;-64
2023/09/09 08:55:05;;;;;;;55.13;46.72;;;;;;;20.99;100.00;101593.25;5031734;28;20037;-64
2023/09/09 08:57:53;;;;;;;52.20;44.05;;;;;;;21.03;100.00;101591.47;5047900;28;20413;-65
2023/09/09 09:00:41;;;;;;;45.70;37.35;;;;;;;21.10;100.00;101594.59;5053121;28;20045;-64
2023/09/09 09:03:31;;;;;;;55.03;47.65;;;;;;;21.17;100.00;101592.19;5037085;28;20045;-64
2023/09/09 09:06:20;;;;;;;52.22;46.42;;;;;;;21.21;100.00;101601.50;5056694;28;20053;-65
2023/09/09 09:09:08;;;;;;;48.05;41.20;;;;;;;21.21;100.00;101600.66;5026887;28;20076;-64
2023/09/09 09:12:02;;;;;;;43.15;35.25;;;;;;;21.21;100.00;101601.50;5031366;28;20196;-64
2023/09/09 09:14:51;;;;;;;55.10;41.17;;;;;;;21.27;100.00;101593.84;5026480;28;20097;-64
2023/09/09 09:17:42;;;;;;;52.85;46.58;;;;;;;21.33;100.00;101600.03;5052655;28;20057;-65
2023/09/09 09:20:33;;;;;;;59.55;49.67;;;;;;;21.39;100.00;101598.75;5045113;28;20048;-64
2023/09/09 09:23:21;;;;;;;56.58;46.83;;;;;;;21.45;100.00;101601.09;5051722;28;20119;-63
2023/09/09 09:26:26;;;;;;;47.50;41.28;;;;;;;21.51;100.00;101603.72;5048532;28;20457;-64
2023/09/09 09:29:14;;;;;;;45.53;37.40;;;;;;;21.54;100.00;101605.81;5036375;28;20045;-64
2023/09/09 09:32:04;;;;;;;33.95;28.75;;;;;;;21.59;100.00;101606.47;5050538;28;20135;-65
2023/09/09 09:34:54;;;;;;;43.22;33.80;;;;;;;21.63;100.00;101607.47;5051523;28;20053;-63
2023/09/09 09:37:42;;;;;;;42.58;37.05;;;;;;;21.67;100.00;101604.84;5049165;28;20477;-65
2023/09/09 09:40:31;;;;;;;49.83;39.67;;;;;;;21.71;100.00;101603.06;5037975;28;20067;-64
2023/09/09 09:43:23;;;;;;;43.40;37.17;;;;;;;21.76;100.00;101604.88;5052265;28;20049;-63
2023/09/09 09:46:15;;;;;;;45.53;34.45;;;;;;;21.80;100.00;101605.88;5049294;28;20259;-64
2023/09/09 09:49:10;;;;;;;39.05;33.63;;;;;;;21.83;100.00;101603.25;5036250;28;20203;-64
2023/09/09 09:51:58;;;;;;;33.03;27.98;;;;;;;21.85;100.00;101594.59;5055157;28;20064;-64
2023/09/09 09:54:51;;;;;;;31.70;25.48;;;;;;;21.91;100.00;101601.59;5027800;28;20041;-64
2023/09/09 09:57:39;;;;;;;34.75;27.45;;;;;;;21.96;100.00;101590.38;5038961;28;20532;-64
2023/09/09 10:00:27;;;;;;;26.33;22.90;;;;;;;22.02;100.00;101600.16;5035507;28;20109;-64
2023/09/09 10:03:17;;;;;;;34.28;25.52;;;;;;;22.06;100.00;101600.31;5036765;28;20128;-62
2023/09/09 10:06:05;;;;;;;29.05;22.42;;;;;;;22.09;100.00;101592.16;5052961;28;20102;-67
2023/09/09 10:09:03;;;;;;;29.50;23.02;;;;;;;22.14;100.00;101596.72;5024190;28;20056;-64
2023/09/09 10:12:01;;;;;;;34.95;23.55;;;;;;;22.20;100.00;101591.81;5046807;28;20041;-64
2023/09/09 10:14:49;;;;;;;42.10;31.73;;;;;;;22.24;100.00;101590.03;5043098;28;20382;-63
2023/09/09 10:17:39;;;;;;;36.47;28.23;;;;;;;22.28;100.00;101593.81;5043494;28;20056;-64
2023/09/09 10:20:28;;;;;;;31.63;25.85;;;;;;;22.31;100.00;101591.16;5037525;28;20453;-63
2023/09/09 10:23:17;;;;;;;32.97;23.77;;;;;;;22.36;100.00;101592.97;5054054;28;20056;-62
2023/09/09 10:26:06;;;;;;;28.10;19.85;;;;;;;22.40;100.00;101588.38;5052472;28;20076;-64
2023/09/09 10:28:55;;;;;;;28.33;21.52;;;;;;;22.44;100.00;101588.53;5051314;28;20052;-64
2023/09/09 10:31:45;;;;;;;29.17;20.92;;;;;;;22.50;100.00;101590.81;5052480;28;20056;-63
2023/09/09 10:34:35;;;;;;;39.28;26.17;;;;;;;22.53;100.00;101595.69;5033870;28;20493;-64
2023/09/09 10:37:25;;;;;;;41.22;31.13;;;;;;;22.59;100.00;101590.00;5036576;28;20045;-63
2023/09/09 10:40:14;;;;;;;37.45;25.52;;;;;;;22.64;100.00;101589.81;5030784;28;20459;-63
2023/09/09 10:43:02;;;;;;;34.83;24.67;;;;;;;22.68;100.00;101586.03;4350420;28;10000781;-64
2023/09/09 10:45:50;;;;;;;31.63;25.10;;;;;;;22.74;100.00;101587.47;5048043;28;20128;-64
2023/09/09 10:48:39;;;;;;;31.27;26.05;;;;;;;22.80;100.00;101588.13;5045477;28;20053;-63
2023/09/09 10:51:29;;;;;;;26.35;18.13;;;;;;;22.81;100.00;101586.97;5050316;28;20053;-63
2023/09/09 10:54:24;;;;;;;21.13;17.20;;;;;;;22.83;100.00;101578.31;5021877;28;20051;-62
2023/09/09 10:57:14;;;;;;;29.33;22.60;;;;;;;22.86;100.00;101581.22;5041232;28;20049;-63
2023/09/09 11:00:09;;;;;;;30.30;23.10;;;;;;;22.92;100.00;101585.44;5047177;28;20091;-64
2023/09/09 11:02:58;;;;;;;34.08;24.67;;;;;;;22.99;100.00;101584.13;5020911;28;20053;-64
2023/09/09 11:06:05;;;;;;;33.92;24.92;;;;;;;23.03;100.00;101590.66;5031444;28;20467;-63
2023/09/09 11:08:55;;;;;;;31.42;23.55;;;;;;;23.08;100.00;101587.69;5035015;28;20132;-65
2023/09/09 11:11:44;;;;;;;18.98;15.57;;;;;;;23.13;100.00;101584.72;5052468;28;20132;-65
2023/09/09 11:14:32;;;;;;;28.63;23.10;;;;;;;23.15;100.00;101587.97;5054173;28;20064;-64
2023/09/09 11:17:21;;;;;;;27.08;21.70;;;;;;;23.16;100.00;101578.47;5020225;28;20056;-64
2023/09/09 11:20:11;;;;;;;32.63;21.48;;;;;;;23.18;100.00;101576.19;5038230;28;20088;-64
2023/09/09 11:23:00;;;;;;;27.15;21.35;;;;;;;23.22;98.62;101576.34;5054411;28;20412;-63
2023/09/09 11:25:49;;;;;;;30.23;21.77;;;;;;;23.31;97.64;101579.91;5045946;28;20076;-62
2023/09/09 11:28:37;;;;;;;28.48;20.45;;;;;;;23.36;97.00;101571.34;4993227;28;20077;-65
2023/09/09 11:31:26;;;;;;;24.38;18.02;;;;;;;23.37;95.03;101571.00;5032771;28;20183;-63
2023/09/09 11:34:14;;;;;;;22.75;17.38;;;;;;;23.41;94.86;101568.38;5019499;28;20469;-62
2023/09/09 11:37:04;;;;;;;18.45;14.85;;;;;;;23.41;93.13;101562.00;5019065;28;20579;-63
2023/09/09 11:39:55;;;;;;;18.27;13.65;;;;;;;23.40;93.52;101566.72;5013280;28;20037;-63
2023/09/09 11:42:53;;;;;;;22.20;16.13;;;;;;;23.45;93.92;101566.56;5054865;28;20083;-63
2023/09/09 11:45:41;;;;;;;25.23;18.50;;;;;;;23.50;94.72;101571.91;5046295;28;20045;-63
2023/09/09 11:48:29;;;;;;;24.40;17.90;;;;;;;23.60;94.18;101570.69;5021057;28;20045;-63
2023/09/09 11:51:17;;;;;;;28.05;19.63;;;;;;;23.62;93.57;101565.63;5019332;28;20076;-64
2023/09/09 11:54:09;;;;;;;23.88;18.17;;;;;;;23.64;93.99;101565.25;5041009;28;20109;-63
2023/09/09 11:57:04;;;;;;;25.52;20.35;;;;;;;23.69;93.76;101565.88;5051715;28;20365;-63
2023/09/09 11:59:53;;;;;;;;;;;;;;;23.70;93.89;101570.28;5032494;28;20521;-62
2023/09/09 12:02:48;;;;;;;26.45;19.83;;;;;;;23.77;94.09;101575.34;5019641;28;20400;-63
2023/09/09 12:05:36;;;;;;;28.20;21.30;;;;;;;23.86;93.40;101569.69;5023317;28;20408;-64
2023/09/09 12:08:25;;;;;;;26.50;20.48;;;;;;;23.88;93.01;101570.97;5031857;28;20046;-63
2023/09/09 12:11:16;;;;;;;24.80;18.88;;;;;;;23.89;92.82;101567.06;5035043;28;20096;-63
2023/09/09 12:14:05;;;;;;;25.38;19.13;;;;;;;23.90;93.00;101573.44;5041650;28;20041;-63
2023/09/09 12:16:53;;;;;;;24.25;18.20;;;;;;;23.93;92.65;101572.75;5051819;28;20069;-62
2023/09/09 12:19:41;;;;;;;29.63;19.75;;;;;;;24.00;92.36;101576.63;5054020;28;20048;-64
2023/09/09 12:22:33;;;;;;;26.75;18.80;;;;;;;24.03;91.57;101564.78;5065712;28;20132;-64
2023/09/09 12:25:31;;;;;;;23.27;17.55;;;;;;;24.08;91.96;101569.34;5050233;28;20051;-63
2023/09/09 12:28:19;;;;;;;23.98;18.08;;;;;;;24.12;91.43;101573.06;5051975;28;20044;-63
2023/09/09 12:31:08;;;;;;;23.10;16.55;;;;;;;24.13;90.50;101568.31;5037242;28;20520;-64
2023/09/09 12:33:57;;;;;;;19.70;14.15;;;;;;;24.18;89.42;101573.66;5033418;28;20207;-63
2023/09/09 12:36:50;;;;;;;20.05;15.63;;;;;;;24.24;88.57;101558.34;5033480;28;20509;-61
2023/09/09 12:39:38;;;;;;;20.63;14.80;;;;;;;24.27;87.29;101562.44;5032806;28;20041;-62
2023/09/09 12:42:26;;;;;;;21.65;14.65;;;;;;;24.32;86.58;101557.47;5005031;28;20049;-63